createdAt,value
2023-05-14T00:01:28.964Z,87.48
2023-05-14T00:03:55.539Z,87.51
2023-05-14T00:06:22.079Z,87.95
2023-05-14T00:08:48.525Z,88.20
2023-05-14T00:11:16.428Z,88.60
2023-05-14T00:13:42.967Z,89.19
2023-05-14T00:16:09.508Z,89.29
2023-05-14T00:18:36.072Z,90.02
2023-05-14T00:21:03.140Z,89.87
2023-05-14T00:23:29.612Z,89.92
2023-05-14T00:25:56.164Z,90.14
2023-05-14T00:28:22.629Z,90.43
2023-05-14T00:30:49.170Z,90.88
2023-05-14T00:33:15.952Z,89.99
2023-05-14T00:35:42.451Z,90.94
2023-05-14T00:38:09.016Z,91.57
2023-05-14T00:40:35.563Z,91.64
2023-05-14T00:43:02.036Z,91.14
2023-05-14T00:45:28.746Z,91.28
2023-05-14T00:47:55.744Z,91.23
2023-05-14T00:50:23.212Z,91.80
2023-05-14T00:52:49.888Z,91.59
2023-05-14T00:55:16.720Z,91.98
2023-05-14T00:57:43.846Z,91.83
2023-05-14T01:00:10.877Z,91.96
2023-05-14T01:02:37.460Z,92.04
2023-05-14T01:05:04.472Z,92.58
2023-05-14T01:07:48.426Z,93.06
2023-05-14T01:10:23.758Z,92.70
2023-05-14T01:12:59.204Z,93.79
2023-05-14T01:15:30.688Z,93.31
2023-05-14T01:18:01.781Z,93.76
2023-05-14T01:20:28.302Z,93.53
2023-05-14T01:22:54.731Z,93.57
2023-05-14T01:25:21.261Z,93.92
2023-05-14T01:28:06.385Z,93.74
2023-05-14T01:30:36.710Z,94.19
2023-05-14T01:33:13.206Z,94.32
2023-05-14T01:35:40.420Z,93.85
2023-05-14T01:38:11.695Z,93.69
2023-05-14T01:40:38.532Z,94.14
2023-05-14T01:43:05.248Z,94.04
2023-05-14T01:45:35.172Z,94.68
2023-05-14T01:48:01.733Z,95.23
2023-05-14T01:50:28.232Z,95.09
2023-05-14T01:52:56.607Z,95.17
2023-05-14T01:55:24.495Z,95.14
2023-05-14T01:57:54.434Z,95.31
2023-05-14T02:00:24.169Z,95.25
2023-05-14T02:02:51.249Z,95.41
2023-05-14T02:05:17.828Z,95.88
2023-05-14T02:07:44.578Z,96.33
2023-05-14T02:10:11.408Z,96.63
2023-05-14T02:12:37.879Z,96.60
2023-05-14T02:15:04.803Z,96.55
2023-05-14T02:17:31.350Z,95.57
2023-05-14T02:19:58.331Z,95.81
2023-05-14T02:22:24.773Z,96.21
2023-05-14T02:24:51.481Z,96.11
2023-05-14T02:27:18.002Z,96.41
2023-05-14T02:29:44.728Z,96.77
2023-05-14T02:32:11.498Z,96.73
2023-05-14T02:34:38.658Z,96.66
2023-05-14T02:37:05.256Z,97.52
2023-05-14T02:39:31.844Z,97.30
2023-05-14T02:41:58.325Z,97.33
2023-05-14T02:44:24.804Z,97.14
2023-05-14T02:46:51.698Z,97.62
2023-05-14T02:49:18.243Z,97.36
2023-05-14T02:51:44.684Z,97.71
2023-05-14T02:54:11.209Z,97.48
2023-05-14T02:56:37.690Z,97.57
2023-05-14T02:59:04.334Z,97.28
2023-05-14T03:01:31.361Z,98.17
2023-05-14T03:03:58.250Z,98.10
2023-05-14T03:06:24.730Z,98.34
2023-05-14T03:08:51.269Z,98.38
2023-05-14T03:11:17.973Z,98.94
2023-05-14T03:13:44.440Z,98.37
2023-05-14T03:16:11.402Z,98.97
2023-05-14T03:18:37.948Z,99.43
2023-05-14T03:21:04.571Z,98.62
2023-05-14T03:23:32.003Z,98.93
2023-05-14T03:25:58.757Z,98.50
2023-05-14T03:28:25.944Z,99.70
2023-05-14T03:30:52.570Z,99.33
2023-05-14T03:33:19.064Z,99.96
2023-05-14T03:35:45.560Z,99.93
2023-05-14T03:38:12.026Z,100.00
2023-05-14T03:40:38.563Z,99.56
2023-05-14T03:43:05.021Z,100.00
2023-05-14T03:45:32.276Z,100.00
2023-05-14T03:47:58.817Z,100.00
2023-05-14T03:50:25.783Z,100.00
2023-05-14T03:52:52.714Z,100.00
2023-05-14T03:55:22.164Z,100.00
2023-05-14T03:57:48.737Z,100.00
2023-05-14T04:00:16.015Z,100.00
2023-05-14T04:02:42.776Z,100.00
2023-05-14T04:05:09.633Z,100.00
2023-05-14T04:07:36.285Z,100.00
2023-05-14T04:10:04.703Z,100.00
2023-05-14T04:12:31.457Z,100.00
2023-05-14T04:14:58.637Z,100.00
2023-05-14T04:17:25.707Z,100.00
2023-05-14T04:19:52.298Z,100.00
2023-05-14T04:22:18.813Z,100.00
2023-05-14T04:24:45.276Z,100.00
2023-05-14T04:27:11.782Z,100.00
2023-05-14T04:29:38.294Z,100.00
2023-05-14T04:32:05.236Z,100.00
2023-05-14T04:34:31.714Z,100.00
2023-05-14T04:36:58.192Z,100.00
2023-05-14T04:39:24.784Z,100.00
2023-05-14T04:41:51.326Z,100.00
2023-05-14T04:44:17.860Z,100.00
2023-05-14T04:46:44.331Z,100.00
2023-05-14T04:49:10.764Z,100.00
2023-05-14T04:51:37.240Z,100.00
2023-05-14T04:54:03.962Z,100.00
2023-05-14T04:56:30.551Z,100.00
2023-05-14T04:58:57.023Z,100.00
2023-05-14T05:01:23.660Z,99.89
2023-05-14T05:03:50.851Z,100.00
2023-05-14T05:06:17.386Z,99.41
2023-05-14T05:08:43.879Z,99.46
2023-05-14T05:11:10.398Z,99.35
2023-05-14T05:13:36.825Z,99.71
2023-05-14T05:16:03.385Z,99.61
2023-05-14T05:18:29.873Z,99.29
2023-05-14T05:20:56.487Z,98.93
2023-05-14T05:23:22.985Z,99.27
2023-05-14T05:25:50.391Z,99.32
2023-05-14T05:28:16.951Z,99.65
2023-05-14T05:30:45.177Z,99.45
2023-05-14T05:33:12.444Z,99.01
2023-05-14T05:35:39.028Z,98.78
2023-05-14T05:38:05.573Z,98.86
2023-05-14T05:40:32.072Z,99.30
2023-05-14T05:42:58.544Z,98.23
2023-05-14T05:45:25.010Z,97.60
2023-05-14T05:47:51.588Z,98.37
2023-05-14T05:50:19.776Z,98.34
2023-05-14T05:52:46.693Z,98.38
2023-05-14T05:55:13.606Z,98.52
2023-05-14T05:57:40.085Z,98.33
2023-05-14T06:00:13.291Z,97.91
2023-05-14T06:02:41.189Z,98.38
2023-05-14T06:05:09.664Z,98.93
2023-05-14T06:07:36.489Z,98.86
2023-05-14T06:10:03.376Z,99.04
2023-05-14T06:12:29.856Z,99.50
2023-05-14T06:14:57.798Z,99.72
2023-05-14T06:17:25.383Z,99.56
2023-05-14T06:19:52.942Z,98.97
2023-05-14T06:22:19.670Z,100.00
2023-05-14T06:24:46.199Z,99.47
2023-05-14T06:27:12.737Z,98.64
2023-05-14T06:29:39.203Z,97.86
2023-05-14T06:32:06.180Z,97.90
2023-05-14T06:34:32.726Z,98.50
2023-05-14T06:36:59.433Z,98.92
2023-05-14T06:39:25.965Z,99.31
2023-05-14T06:41:52.459Z,98.45
2023-05-14T06:44:19.534Z,97.43
2023-05-14T06:46:45.967Z,96.57
2023-05-14T06:49:12.499Z,95.67
2023-05-14T06:51:39.078Z,94.79
2023-05-14T06:54:05.598Z,95.37
2023-05-14T06:56:32.075Z,94.48
2023-05-14T06:58:58.522Z,93.83
2023-05-14T07:01:25.015Z,94.77
2023-05-14T07:03:51.520Z,92.28
2023-05-14T07:06:18.016Z,92.60
2023-05-14T07:08:47.294Z,93.54
2023-05-14T07:11:14.550Z,93.69
2023-05-14T07:13:41.758Z,94.02
2023-05-14T07:16:11.694Z,92.30
2023-05-14T07:18:38.419Z,92.07
2023-05-14T07:21:06.471Z,91.62
2023-05-14T07:23:36.074Z,92.39
2023-05-14T07:26:03.323Z,92.53
2023-05-14T07:28:29.841Z,92.92
2023-05-14T07:30:56.311Z,92.73
2023-05-14T07:33:23.480Z,93.20
2023-05-14T07:35:50.427Z,92.61
2023-05-14T07:38:17.326Z,90.69
2023-05-14T07:40:43.904Z,92.70
2023-05-14T07:43:10.758Z,91.29
2023-05-14T07:45:39.032Z,92.11
2023-05-14T07:48:06.111Z,92.63
2023-05-14T07:50:32.796Z,91.70
2023-05-14T07:52:59.315Z,91.44
2023-05-14T07:55:25.919Z,91.19
2023-05-14T07:57:52.372Z,93.01
2023-05-14T08:00:19.177Z,91.81
2023-05-14T08:02:46.101Z,90.59
2023-05-14T08:05:12.832Z,91.35
2023-05-14T08:07:39.314Z,88.64
2023-05-14T08:10:07.735Z,88.95
2023-05-14T08:12:34.386Z,88.95
2023-05-14T08:15:00.923Z,90.70
2023-05-14T08:17:27.426Z,90.01
2023-05-14T08:19:54.150Z,90.08
2023-05-14T08:22:20.654Z,91.32
2023-05-14T08:24:47.133Z,90.04
2023-05-14T08:27:13.656Z,90.85
2023-05-14T08:29:40.655Z,89.54
2023-05-14T08:32:16.053Z,88.11
2023-05-14T08:34:46.241Z,88.11
2023-05-14T08:37:12.777Z,90.05
2023-05-14T08:39:39.339Z,87.89
2023-05-14T08:42:07.984Z,87.00
2023-05-14T08:44:39.746Z,86.46
2023-05-14T08:47:07.050Z,87.66
2023-05-14T08:49:41.461Z,85.32
2023-05-14T08:52:09.838Z,86.42
2023-05-14T08:54:36.573Z,88.45
2023-05-14T08:57:11.130Z,86.13
2023-05-14T08:59:37.877Z,85.10
2023-05-14T09:02:06.354Z,84.85
2023-05-14T09:04:34.483Z,85.10
2023-05-14T09:07:02.184Z,84.05
2023-05-14T09:09:29.165Z,84.47
2023-05-14T09:11:56.118Z,84.98
2023-05-14T09:14:23.446Z,84.91
2023-05-14T09:16:51.333Z,84.11
2023-05-14T09:19:21.862Z,82.97
2023-05-14T09:21:49.589Z,83.82
2023-05-14T09:24:24.016Z,82.40
2023-05-14T09:26:54.411Z,81.68
2023-05-14T09:29:20.929Z,82.60
2023-05-14T09:31:50.054Z,84.66
2023-05-14T09:34:27.256Z,83.87
2023-05-14T09:37:01.802Z,83.18
2023-05-14T09:39:29.519Z,83.09
2023-05-14T09:41:56.720Z,84.20
2023-05-14T09:44:24.030Z,82.99
2023-05-14T09:46:52.179Z,83.59
2023-05-14T09:49:18.733Z,80.79
2023-05-14T09:51:45.330Z,82.19
2023-05-14T09:54:11.951Z,84.75
2023-05-14T09:56:39.623Z,83.18
2023-05-14T09:59:06.377Z,78.02
2023-05-14T10:01:33.334Z,81.14
2023-05-14T10:04:01.073Z,78.93
2023-05-14T10:06:43.853Z,81.37
2023-05-14T10:09:13.117Z,82.34
2023-05-14T10:11:43.813Z,79.45
2023-05-14T10:14:46.419Z,80.61
2023-05-14T10:17:18.429Z,82.51
2023-05-14T10:19:53.567Z,82.62
2023-05-14T10:22:23.599Z,78.59
2023-05-14T10:24:54.112Z,78.79
2023-05-14T10:27:21.936Z,82.91
2023-05-14T10:29:56.232Z,79.62
2023-05-14T10:32:25.490Z,78.93
2023-05-14T10:34:55.706Z,76.68
2023-05-14T10:37:25.428Z,78.00
2023-05-14T10:40:02.559Z,76.10
2023-05-14T10:42:35.844Z,77.58
2023-05-14T10:45:07.384Z,77.41
2023-05-14T10:47:38.663Z,76.46
2023-05-14T10:50:07.563Z,74.63
2023-05-14T10:52:35.167Z,77.54
2023-05-14T10:55:04.025Z,75.66
2023-05-14T10:57:32.215Z,75.17
2023-05-14T11:00:00.991Z,73.99
2023-05-14T11:02:30.021Z,75.14
2023-05-14T11:05:03.884Z,76.37
2023-05-14T11:07:35.947Z,75.34
2023-05-14T11:10:03.890Z,72.53
2023-05-14T11:12:31.122Z,76.10
2023-05-14T11:14:59.266Z,77.75
2023-05-14T11:17:27.199Z,73.42
2023-05-14T11:19:54.417Z,70.07
2023-05-14T11:22:21.167Z,75.05
2023-05-14T11:24:47.696Z,71.40
2023-05-14T11:27:14.202Z,72.66
2023-05-14T11:29:46.094Z,71.66
2023-05-14T11:32:13.570Z,69.86
2023-05-14T11:34:40.790Z,69.52
2023-05-14T11:37:08.695Z,68.91
2023-05-14T11:39:37.443Z,70.90
2023-05-14T11:42:05.828Z,71.06
2023-05-14T11:44:32.819Z,71.86
2023-05-14T11:47:01.223Z,73.07
2023-05-14T11:49:32.347Z,70.74
2023-05-14T11:52:06.619Z,72.52
2023-05-14T11:54:34.224Z,72.57
2023-05-14T11:57:03.140Z,71.54
2023-05-14T11:59:32.086Z,72.02
2023-05-14T12:01:59.194Z,72.90
2023-05-14T12:04:26.154Z,72.36
2023-05-14T12:06:53.242Z,72.40
2023-05-14T12:09:20.894Z,71.81
2023-05-14T12:11:52.740Z,72.56
2023-05-14T12:14:21.166Z,73.12
2023-05-14T12:16:48.675Z,71.45
2023-05-14T12:19:16.582Z,72.82
2023-05-14T12:21:44.129Z,69.44
2023-05-14T12:24:12.544Z,70.63
2023-05-14T12:26:39.525Z,73.16
2023-05-14T12:29:09.006Z,70.39
2023-05-14T12:31:36.566Z,69.82
2023-05-14T12:34:04.301Z,70.00
2023-05-14T12:36:32.855Z,69.90
2023-05-14T12:39:03.804Z,69.69
2023-05-14T12:41:31.232Z,69.36
2023-05-14T12:43:58.763Z,68.53
2023-05-14T12:46:26.835Z,68.08
2023-05-14T12:48:54.373Z,68.74
2023-05-14T12:51:20.959Z,67.01
2023-05-14T12:53:48.117Z,67.60
2023-05-14T12:56:14.882Z,66.58
2023-05-14T12:58:41.630Z,67.81
2023-05-14T13:01:08.689Z,69.90
2023-05-14T13:03:35.254Z,66.92
2023-05-14T13:06:01.752Z,65.55
2023-05-14T13:08:28.263Z,67.97
2023-05-14T13:10:55.777Z,66.94
2023-05-14T13:13:23.159Z,67.03
2023-05-14T13:15:49.950Z,69.31
2023-05-14T13:18:18.097Z,67.07
2023-05-14T13:20:47.264Z,67.71
2023-05-14T13:23:14.448Z,66.84
2023-05-14T13:25:41.052Z,66.91
2023-05-14T13:28:08.659Z,67.95
2023-05-14T13:30:35.200Z,65.24
2023-05-14T13:33:01.774Z,65.86
2023-05-14T13:35:28.289Z,63.51
2023-05-14T13:37:54.759Z,65.83
2023-05-14T13:40:21.343Z,64.39
2023-05-14T13:42:47.863Z,64.49
2023-05-14T13:45:14.492Z,64.39
2023-05-14T13:47:41.380Z,61.89
2023-05-14T13:50:08.302Z,62.16
2023-05-14T13:52:34.838Z,62.91
2023-05-14T13:55:01.600Z,65.09
2023-05-14T13:57:28.071Z,63.10
2023-05-14T13:59:54.584Z,60.91
2023-05-14T14:02:21.127Z,60.62
2023-05-14T14:04:47.746Z,60.66
2023-05-14T14:07:14.476Z,63.65
2023-05-14T14:09:41.226Z,63.63
2023-05-14T14:12:09.090Z,60.57
2023-05-14T14:14:35.698Z,62.50
2023-05-14T14:17:02.229Z,62.35
2023-05-14T14:19:28.719Z,58.83
2023-05-14T14:21:55.249Z,60.01
2023-05-14T14:24:21.804Z,57.55
2023-05-14T14:26:48.290Z,58.07
2023-05-14T14:29:14.803Z,63.16
2023-05-14T14:31:41.345Z,59.76
2023-05-14T14:34:08.077Z,59.73
2023-05-14T14:36:34.583Z,60.49
2023-05-14T14:39:01.053Z,60.82
2023-05-14T14:41:27.608Z,57.69
2023-05-14T14:43:54.061Z,58.10
2023-05-14T14:46:20.655Z,60.71
2023-05-14T14:48:47.244Z,59.69
2023-05-14T14:51:13.785Z,55.98
2023-05-14T14:53:40.600Z,58.46
2023-05-14T14:56:07.311Z,58.15
2023-05-14T14:58:33.913Z,59.13
2023-05-14T15:01:01.295Z,58.30
2023-05-14T15:03:28.294Z,61.23
2023-05-14T15:05:54.838Z,60.86
2023-05-14T15:08:25.275Z,62.37
2023-05-14T15:10:52.132Z,61.79
2023-05-14T15:13:19.000Z,60.62
2023-05-14T15:15:45.504Z,62.29
2023-05-14T15:18:12.104Z,64.62
2023-05-14T15:20:38.769Z,64.35
2023-05-14T15:23:05.794Z,65.94
2023-05-14T15:25:32.283Z,63.23
2023-05-14T15:27:58.766Z,65.12
2023-05-14T15:30:25.318Z,64.46
2023-05-14T15:32:52.240Z,63.90
2023-05-14T15:35:18.983Z,62.29
2023-05-14T15:37:45.560Z,64.65
2023-05-14T15:40:12.469Z,64.16
2023-05-14T15:42:42.085Z,67.68
2023-05-14T15:45:10.344Z,65.12
2023-05-14T15:47:36.889Z,62.54
2023-05-14T15:50:03.931Z,63.27
2023-05-14T15:52:30.819Z,65.45
2023-05-14T15:54:59.419Z,65.42
2023-05-14T15:57:26.156Z,65.78
2023-05-14T15:59:52.659Z,65.04
2023-05-14T16:02:19.104Z,65.94
2023-05-14T16:04:45.547Z,67.78
2023-05-14T16:07:12.218Z,65.72
2023-05-14T16:09:39.238Z,65.88
2023-05-14T16:12:06.853Z,64.53
2023-05-14T16:14:36.396Z,63.18
2023-05-14T16:17:02.934Z,64.29
2023-05-14T16:19:29.580Z,66.46
2023-05-14T16:21:56.228Z,68.25
2023-05-14T16:24:22.716Z,68.97
2023-05-14T16:26:49.218Z,69.56
2023-05-14T16:29:15.880Z,69.17
2023-05-14T16:31:42.367Z,70.74
2023-05-14T16:34:08.852Z,70.84
2023-05-14T16:36:35.396Z,71.51
2023-05-14T16:41:31.227Z,71.25
2023-05-14T16:43:57.650Z,68.19
2023-05-14T16:46:24.306Z,68.68
2023-05-14T16:48:50.819Z,67.78
2023-05-14T16:51:17.398Z,66.96
2023-05-14T16:53:43.873Z,66.02
2023-05-14T16:56:11.038Z,66.87
2023-05-14T16:58:38.324Z,66.99
2023-05-14T17:01:05.881Z,68.72
2023-05-14T17:03:33.320Z,69.42
2023-05-14T17:06:00.213Z,70.85
2023-05-14T17:08:31.767Z,71.21
2023-05-14T17:10:58.336Z,71.84
2023-05-14T17:13:24.865Z,73.07
2023-05-14T17:15:51.364Z,74.37
2023-05-14T17:18:17.885Z,75.89
2023-05-14T17:20:44.434Z,76.59
2023-05-14T17:23:10.883Z,78.58
2023-05-14T17:25:37.340Z,79.53
2023-05-14T17:28:03.881Z,80.79
2023-05-14T17:30:30.341Z,81.45
2023-05-14T17:32:56.929Z,80.46
2023-05-14T17:35:23.735Z,81.67
2023-05-14T17:37:50.441Z,81.62
2023-05-14T17:40:17.062Z,81.47
2023-05-14T17:42:45.512Z,81.75
2023-05-14T17:45:13.233Z,80.99
2023-05-14T17:47:39.804Z,81.32
2023-05-14T17:50:07.148Z,81.99
2023-05-14T17:52:33.631Z,82.23
2023-05-14T17:55:00.205Z,82.53
2023-05-14T17:57:27.036Z,82.39
2023-05-14T17:59:53.511Z,83.74
2023-05-14T18:02:19.960Z,84.18
2023-05-14T18:04:46.716Z,84.28
2023-05-14T18:07:13.422Z,84.45
2023-05-14T18:09:39.890Z,85.01
2023-05-14T18:12:06.866Z,85.38
2023-05-14T18:14:33.344Z,86.63
2023-05-14T18:16:59.936Z,86.34
2023-05-14T18:19:26.429Z,87.10
2023-05-14T18:21:55.375Z,86.94
2023-05-14T18:24:22.313Z,86.85
2023-05-14T18:26:49.765Z,87.31
2023-05-14T18:29:16.176Z,87.04
2023-05-14T18:31:42.661Z,88.44
2023-05-14T18:34:09.149Z,87.79
2023-05-14T18:36:35.780Z,87.71
2023-05-14T18:39:02.209Z,86.91
2023-05-14T18:41:28.744Z,87.04
2023-05-14T18:43:55.294Z,87.68
2023-05-14T18:46:21.851Z,87.44
2023-05-14T18:48:48.342Z,87.80
2023-05-14T18:51:14.824Z,88.64
2023-05-14T18:53:41.361Z,87.59
2023-05-14T18:56:09.495Z,88.16
2023-05-14T18:58:36.012Z,87.83
2023-05-14T19:01:02.487Z,87.57
2023-05-14T19:03:29.128Z,87.75
2023-05-14T19:05:55.693Z,88.02
2023-05-14T19:08:22.272Z,88.85
2023-05-14T19:10:48.747Z,88.98
2023-05-14T19:13:18.349Z,88.75
2023-05-14T19:15:44.867Z,88.67
2023-05-14T19:18:12.976Z,89.56
2023-05-14T19:20:39.479Z,89.83
2023-05-14T19:23:05.969Z,88.43
2023-05-14T19:25:33.673Z,89.73
2023-05-14T19:28:02.117Z,90.37
2023-05-14T19:30:28.587Z,91.37
2023-05-14T19:32:55.186Z,91.40
2023-05-14T19:35:22.150Z,92.71
2023-05-14T19:37:48.803Z,92.57
2023-05-14T19:40:15.407Z,93.13
2023-05-14T19:42:42.240Z,91.68
2023-05-14T19:45:08.996Z,91.02
2023-05-14T19:47:35.624Z,91.35
2023-05-14T19:50:02.105Z,91.94
2023-05-14T19:52:28.576Z,91.59
2023-05-14T19:54:55.070Z,90.92
2023-05-14T19:57:21.696Z,91.29
2023-05-14T19:59:48.188Z,90.00
2023-05-14T20:02:18.189Z,91.32
2023-05-14T20:04:45.952Z,91.09
2023-05-14T20:07:13.996Z,91.69
2023-05-14T20:09:40.560Z,92.17
2023-05-14T20:12:07.594Z,92.89
2023-05-14T20:14:34.129Z,92.21
2023-05-14T20:17:00.818Z,92.72
2023-05-14T20:19:30.156Z,93.16
2023-05-14T20:21:56.909Z,94.22
2023-05-14T20:24:23.480Z,93.73
2023-05-14T20:26:50.427Z,94.49
2023-05-14T20:29:16.914Z,93.82
2023-05-14T20:31:43.444Z,94.33
2023-05-14T20:34:09.918Z,95.05
2023-05-14T20:36:37.417Z,94.77
2023-05-14T20:39:06.107Z,94.93
2023-05-14T20:41:32.668Z,95.21
2023-05-14T20:43:59.166Z,95.63
2023-05-14T20:46:25.932Z,96.02
2023-05-14T20:48:55.281Z,95.58
2023-05-14T20:51:21.840Z,95.83
2023-05-14T20:53:48.368Z,96.21
2023-05-14T20:56:14.863Z,96.51
2023-05-14T20:58:41.297Z,96.55
2023-05-14T21:01:08.192Z,96.37
2023-05-14T21:03:34.950Z,96.84
2023-05-14T21:06:02.657Z,96.81
2023-05-14T21:08:30.072Z,97.20
2023-05-14T21:10:56.560Z,97.55
2023-05-14T21:13:23.131Z,96.92
2023-05-14T21:15:49.795Z,97.29
2023-05-14T21:18:16.303Z,97.85
2023-05-14T21:20:42.806Z,98.01
2023-05-14T21:23:09.287Z,97.62
2023-05-14T21:25:35.854Z,97.64
2023-05-14T21:28:02.355Z,97.42
2023-05-14T21:30:28.870Z,97.82
2023-05-14T21:32:55.540Z,97.90
2023-05-14T21:35:23.193Z,97.84
2023-05-14T21:37:49.969Z,98.32
2023-05-14T21:40:16.429Z,98.62
2023-05-14T21:42:43.088Z,98.14
2023-05-14T21:45:09.991Z,98.89
2023-05-14T21:47:37.160Z,99.35
2023-05-14T21:50:04.856Z,98.95
2023-05-14T21:52:31.329Z,99.74
2023-05-14T21:54:57.821Z,99.54
2023-05-14T21:57:25.653Z,99.51
2023-05-14T21:59:53.662Z,100.00
2023-05-14T22:02:20.162Z,100.00
2023-05-14T22:04:46.865Z,100.00
2023-05-14T22:07:13.426Z,100.00
2023-05-14T22:09:39.841Z,100.00
2023-05-14T22:12:07.083Z,100.00
2023-05-14T22:14:33.653Z,100.00
2023-05-14T22:17:00.385Z,100.00
2023-05-14T22:19:27.819Z,100.00
2023-05-14T22:21:54.492Z,100.00
2023-05-14T22:24:21.028Z,100.00
2023-05-14T22:26:47.543Z,100.00
2023-05-14T22:29:13.995Z,100.00
2023-05-14T22:31:40.524Z,100.00
2023-05-14T22:34:07.052Z,100.00
2023-05-14T22:36:33.606Z,100.00
2023-05-14T22:39:00.052Z,100.00
2023-05-14T22:41:26.686Z,100.00
2023-05-14T22:43:53.165Z,100.00
2023-05-14T22:46:20.320Z,100.00
2023-05-14T22:48:48.964Z,100.00
2023-05-14T22:51:16.263Z,100.00
2023-05-14T22:53:42.735Z,100.00
2023-05-14T22:56:09.291Z,100.00
2023-05-14T22:58:35.923Z,100.00
2023-05-14T23:01:02.476Z,100.00
2023-05-14T23:03:29.610Z,100.00
2023-05-14T23:05:56.126Z,100.00
2023-05-14T23:08:22.606Z,100.00
2023-05-14T23:10:49.100Z,100.00
2023-05-14T23:13:15.652Z,100.00
2023-05-14T23:15:42.836Z,100.00
2023-05-14T23:18:09.422Z,100.00
2023-05-14T23:20:35.921Z,100.00
2023-05-14T23:23:02.331Z,100.00
2023-05-14T23:25:28.885Z,100.00
2023-05-14T23:27:55.504Z,100.00
2023-05-14T23:30:22.055Z,100.00
2023-05-14T23:32:48.560Z,100.00
2023-05-14T23:35:16.358Z,100.00
2023-05-14T23:37:47.196Z,100.00
2023-05-14T23:40:14.198Z,100.00
2023-05-14T23:42:40.718Z,100.00
2023-05-14T23:45:07.863Z,100.00
2023-05-14T23:47:34.654Z,100.00
2023-05-14T23:50:01.199Z,100.00
2023-05-14T23:52:27.671Z,100.00
2023-05-14T23:54:54.253Z,100.00
2023-05-14T23:57:20.927Z,100.00
2023-05-14T23:59:47.378Z,100.00
